createdAt,value
2023-01-27T00:02:38.212Z,1.25
2023-01-27T00:13:07.558Z,2.90
2023-01-27T00:18:10.746Z,2.92
2023-01-27T00:23:40.588Z,2.22
2023-01-27T00:28:44.654Z,3.38
2023-01-27T00:33:49.579Z,1.02
2023-01-27T00:38:52.156Z,0.93
2023-01-27T00:43:55.307Z,1.40
2023-01-27T00:48:58.642Z,1.05
2023-01-27T00:54:03.111Z,1.42
2023-01-27T00:59:06.340Z,4.80
2023-01-27T01:04:08.883Z,5.05
2023-01-27T01:09:11.399Z,3.38
2023-01-27T01:14:14.201Z,4.93
2023-01-27T01:19:16.809Z,1.73
2023-01-27T01:24:19.587Z,1.15
2023-01-27T01:29:22.197Z,0.90
2023-01-27T01:34:24.805Z,5.13
2023-01-27T01:39:27.390Z,1.52
2023-01-27T01:44:32.647Z,4.72
2023-01-27T01:49:39.490Z,1.48
2023-01-27T01:54:51.132Z,6.47
2023-01-27T02:00:09.642Z,5.82
2023-01-27T02:05:33.674Z,3.80
2023-01-27T02:10:36.373Z,1.88
2023-01-27T02:15:40.010Z,2.42
2023-01-27T02:20:47.820Z,2.40
2023-01-27T02:26:11.391Z,1.65
2023-01-27T02:31:15.059Z,5.03
2023-01-27T02:36:19.179Z,1.30
2023-01-27T02:41:53.233Z,3.75
2023-01-27T02:46:55.996Z,2.35
2023-01-27T02:51:58.769Z,5.60
2023-01-27T02:57:02.700Z,2.27
2023-01-27T03:02:07.750Z,3.03
2023-01-27T03:07:10.417Z,1.25
2023-01-27T03:12:22.126Z,0.52
2023-01-27T03:17:43.505Z,1.42
2023-01-27T03:22:46.328Z,1.63
2023-01-27T03:27:50.878Z,2.63
2023-01-27T03:33:03.411Z,2.63
2023-01-27T03:38:43.315Z,6.10
2023-01-27T03:44:04.652Z,2.28
2023-01-27T03:49:07.365Z,1.38
2023-01-27T03:54:09.977Z,2.80
2023-01-27T03:59:12.658Z,0.77
2023-01-27T04:04:33.776Z,0.98
2023-01-27T04:09:37.287Z,2.28
2023-01-27T04:14:43.658Z,1.75
2023-01-27T04:19:47.374Z,1.60
2023-01-27T04:24:50.366Z,1.38
2023-01-27T04:29:53.368Z,3.65
2023-01-27T04:34:56.249Z,0.80
2023-01-27T04:39:59.016Z,2.00
2023-01-27T04:45:01.586Z,2.90
2023-01-27T04:50:04.434Z,1.98
2023-01-27T04:55:07.626Z,3.60
2023-01-27T05:00:12.806Z,1.98
2023-01-27T05:05:15.777Z,5.82
2023-01-27T05:10:18.738Z,1.75
2023-01-27T05:15:22.675Z,4.43
2023-01-27T05:25:28.734Z,2.25
2023-01-27T05:30:31.244Z,3.65
2023-01-27T05:35:34.562Z,1.88
2023-01-27T05:40:37.152Z,3.08
2023-01-27T05:45:39.664Z,2.10
2023-01-27T05:50:42.255Z,3.83
2023-01-27T05:55:45.134Z,1.85
2023-01-27T06:00:48.199Z,3.85
2023-01-27T06:05:56.453Z,6.55
2023-01-27T06:10:59.870Z,7.05
2023-01-27T06:16:12.019Z,4.15
2023-01-27T06:21:16.273Z,4.97
2023-01-27T06:26:20.515Z,7.65
2023-01-27T06:31:23.330Z,4.40
2023-01-27T06:36:25.945Z,4.63
2023-01-27T06:41:28.684Z,6.63
2023-01-27T06:46:31.332Z,5.47
2023-01-27T06:51:33.907Z,4.07
2023-01-27T06:56:36.446Z,2.95
2023-01-27T07:01:39.344Z,6.70
2023-01-27T07:06:41.941Z,2.92
2023-01-27T07:11:45.040Z,3.70
2023-01-27T07:16:47.923Z,4.78
2023-01-27T07:21:50.737Z,3.13
2023-01-27T07:26:53.217Z,12.40
2023-01-27T07:31:55.973Z,8.15
2023-01-27T07:36:58.976Z,17.33
2023-01-27T07:42:04.478Z,4.82
2023-01-27T07:47:07.132Z,7.03
2023-01-27T07:52:09.958Z,11.02
2023-01-27T07:57:12.602Z,4.93
2023-01-27T08:02:15.195Z,5.13
2023-01-27T08:07:21.206Z,5.10
2023-01-27T08:12:23.882Z,1.90
2023-01-27T08:17:26.493Z,4.70
2023-01-27T08:22:30.281Z,6.78
2023-01-27T08:27:32.970Z,5.68
2023-01-27T08:32:35.741Z,3.25
2023-01-27T08:37:38.562Z,5.20
2023-01-27T08:42:41.302Z,7.35
2023-01-27T08:47:44.070Z,2.53
2023-01-27T08:52:46.710Z,3.00
2023-01-27T08:57:49.321Z,1.65
2023-01-27T09:02:52.254Z,4.28
2023-01-27T09:07:54.899Z,1.17
2023-01-27T09:12:57.693Z,1.75
2023-01-27T09:18:00.298Z,1.95
2023-01-27T09:23:03.445Z,7.35
2023-01-27T09:28:06.042Z,3.55
2023-01-27T09:33:09.135Z,5.18
2023-01-27T09:38:15.769Z,131.85
2023-01-27T09:43:53.861Z,5.90
2023-01-27T09:49:07.580Z,8.63
2023-01-27T09:54:15.945Z,0.68
2023-01-27T10:00:01.524Z,1.17
2023-01-27T10:05:09.784Z,0.90
2023-01-27T10:10:41.620Z,3.17
2023-01-27T10:16:28.480Z,13.30
2023-01-27T10:21:49.952Z,1.92
2023-01-27T10:27:08.902Z,4.32
2023-01-27T10:32:45.405Z,1.65
2023-01-27T10:38:19.561Z,1.60
2023-01-27T10:43:39.634Z,0.73
2023-01-27T10:48:52.994Z,2.92
2023-01-27T10:54:15.439Z,0.75
2023-01-27T11:00:10.878Z,0.90
2023-01-27T11:05:24.002Z,1.30
2023-01-27T11:10:59.988Z,1.35
2023-01-27T11:16:05.620Z,0.52
2023-01-27T11:21:18.318Z,4.85
2023-01-27T11:26:42.604Z,3.80
2023-01-27T11:32:06.428Z,1.95
2023-01-27T11:37:22.752Z,2.80
2023-01-27T11:42:33.608Z,3.78
2023-01-27T11:47:39.981Z,3.42
2023-01-27T11:52:45.770Z,2.65
2023-01-27T11:58:11.549Z,4.72
2023-01-27T12:03:44.225Z,5.47
2023-01-27T12:08:49.807Z,3.20
2023-01-27T12:14:02.065Z,5.70
2023-01-27T12:19:15.359Z,4.07
2023-01-27T12:24:39.649Z,5.85
2023-01-27T12:29:48.967Z,9.53
2023-01-27T12:34:56.626Z,2.05
2023-01-27T12:40:03.698Z,1.95
2023-01-27T12:45:23.853Z,3.45
2023-01-27T12:50:28.263Z,4.55
2023-01-27T12:55:47.068Z,5.10
2023-01-27T13:00:50.980Z,5.28
2023-01-27T13:05:57.064Z,5.47
2023-01-27T13:11:02.403Z,2.13
2023-01-27T13:16:29.149Z,4.43
2023-01-27T13:21:39.377Z,4.18
2023-01-27T13:26:42.453Z,4.13
2023-01-27T13:31:56.871Z,3.65
2023-01-27T13:37:22.916Z,5.17
2023-01-27T13:42:48.463Z,3.17
2023-01-27T13:53:19.713Z,19.30
2023-01-27T13:59:08.596Z,32.65
2023-01-27T14:04:32.639Z,25.85
2023-01-27T14:10:02.876Z,22.15
2023-01-27T14:15:30.076Z,21.65
2023-01-27T14:20:40.678Z,16.80
2023-01-27T14:26:03.592Z,10.20
2023-01-27T14:31:14.761Z,11.48
2023-01-27T14:36:51.141Z,9.68
2023-01-27T14:42:03.287Z,9.77
2023-01-27T14:47:24.242Z,9.77
2023-01-27T14:53:08.318Z,9.68
2023-01-27T14:58:35.409Z,19.20
2023-01-27T15:04:20.096Z,20.00
2023-01-27T15:10:02.663Z,35.83
2023-01-27T15:15:45.518Z,47.65
2023-01-27T15:20:53.837Z,51.17
2023-01-27T15:26:02.743Z,114.43
2023-01-27T15:31:27.890Z,150.95
2023-01-27T15:36:33.795Z,181.77
2023-01-27T15:41:39.052Z,142.25
2023-01-27T15:46:50.969Z,149.65
2023-01-27T15:51:57.967Z,127.60
2023-01-27T15:57:05.348Z,100.32
2023-01-27T16:02:16.618Z,96.07
2023-01-27T16:07:37.282Z,102.65
2023-01-27T16:12:48.613Z,107.97
2023-01-27T16:18:02.236Z,112.28
2023-01-27T16:23:22.897Z,119.03
2023-01-27T16:28:29.565Z,115.15
2023-01-27T16:33:41.574Z,134.13
2023-01-27T16:38:45.711Z,138.48
2023-01-27T16:44:04.416Z,99.75
2023-01-27T16:49:36.785Z,180.38
2023-01-27T16:54:43.190Z,225.23
2023-01-27T16:59:48.041Z,193.88
2023-01-27T17:09:59.403Z,113.43
2023-01-27T17:15:17.964Z,104.88
2023-01-27T17:20:34.431Z,103.55
2023-01-27T17:25:39.815Z,114.80
2023-01-27T17:30:43.956Z,119.32
2023-01-27T17:35:52.545Z,126.45
2023-01-27T17:40:56.012Z,130.93
2023-01-27T17:46:19.732Z,137.68
2023-01-27T17:51:33.532Z,157.70
2023-01-27T17:56:36.173Z,169.73
2023-01-27T18:01:39.208Z,168.63
2023-01-27T18:06:43.226Z,179.98
2023-01-27T18:11:58.150Z,175.40
2023-01-27T18:17:02.963Z,144.43
2023-01-27T18:22:17.320Z,106.40
2023-01-27T18:27:33.737Z,103.45
2023-01-27T18:32:40.678Z,94.47
2023-01-27T18:38:15.541Z,89.85
2023-01-27T18:43:18.187Z,77.78
2023-01-27T18:48:21.110Z,77.22
2023-01-27T18:53:23.736Z,93.05
2023-01-27T18:58:26.294Z,87.63
2023-01-27T19:03:37.140Z,77.30
2023-01-27T19:08:39.730Z,81.63
2023-01-27T19:13:46.164Z,61.50
2023-01-27T19:18:48.802Z,72.13
2023-01-27T19:23:51.499Z,55.00
2023-01-27T19:28:57.647Z,64.18
2023-01-27T19:34:00.343Z,75.15
2023-01-27T19:39:14.735Z,57.72
2023-01-27T19:44:17.535Z,73.10
2023-01-27T19:49:20.527Z,62.53
2023-01-27T19:54:24.142Z,70.22
2023-01-27T19:59:26.803Z,51.17
2023-01-27T20:04:29.392Z,58.20
2023-01-27T20:09:32.020Z,50.22
2023-01-27T20:14:34.671Z,51.10
2023-01-27T20:19:37.231Z,50.50
2023-01-27T20:24:39.877Z,58.45
2023-01-27T20:29:42.490Z,47.45
2023-01-27T20:34:45.109Z,49.10
2023-01-27T20:39:47.609Z,33.28
2023-01-27T20:44:50.187Z,54.50
2023-01-27T20:49:52.835Z,73.55
2023-01-27T20:54:55.583Z,47.08
2023-01-27T20:59:58.986Z,77.68
2023-01-27T21:05:01.594Z,74.03
2023-01-27T21:10:06.599Z,65.47
2023-01-27T21:15:10.266Z,53.00
2023-01-27T21:20:13.499Z,48.97
2023-01-27T21:25:16.561Z,28.80
2023-01-27T21:30:19.448Z,19.15
2023-01-27T21:35:22.136Z,24.52
2023-01-27T21:40:24.797Z,19.58
2023-01-27T21:45:28.647Z,16.70
2023-01-27T21:50:31.393Z,17.30
2023-01-27T21:55:35.526Z,16.73
2023-01-27T22:00:38.356Z,20.05
2023-01-27T22:05:40.948Z,26.13
2023-01-27T22:10:43.523Z,19.85
2023-01-27T22:15:50.820Z,13.25
2023-01-27T22:20:53.693Z,18.70
2023-01-27T22:25:56.332Z,20.75
2023-01-27T22:31:03.493Z,29.45
2023-01-27T22:36:08.492Z,13.82
2023-01-27T22:41:11.856Z,24.80
2023-01-27T22:46:14.679Z,15.73
2023-01-27T22:51:17.650Z,15.77
2023-01-27T22:56:20.421Z,11.02
2023-01-27T23:01:23.110Z,12.23
2023-01-27T23:06:25.758Z,15.88
2023-01-27T23:11:28.706Z,11.75
2023-01-27T23:16:31.615Z,10.35
2023-01-27T23:21:34.339Z,14.50
2023-01-27T23:26:36.986Z,9.95
2023-01-27T23:31:39.667Z,7.00
2023-01-27T23:36:42.343Z,10.60
2023-01-27T23:41:45.068Z,9.50
2023-01-27T23:46:47.698Z,9.55
2023-01-27T23:51:50.281Z,9.93
2023-01-27T23:56:53.037Z,11.13
